sensor_id;sensor_type;location;lat;lon;timestamp;P1;durP1;ratioP1;P2;durP2;ratioP2
43529;SDS011;55654;50.966;6.878;2023-07-22T00:01:30;10.07;;;6.77;;
43529;SDS011;55654;50.966;6.878;2023-07-22T00:03:57;9.00;;;6.10;;
43529;SDS011;55654;50.966;6.878;2023-07-22T00:06:23;9.43;;;6.43;;
43529;SDS011;55654;50.966;6.878;2023-07-22T00:08:49;7.70;;;5.73;;
43529;SDS011;55654;50.966;6.878;2023-07-22T00:11:15;10.83;;;5.93;;
43529;SDS011;55654;50.966;6.878;2023-07-22T00:13:43;9.37;;;6.80;;
43529;SDS011;55654;50.966;6.878;2023-07-22T00:16:09;9.27;;;5.93;;
43529;SDS011;55654;50.966;6.878;2023-07-22T00:18:38;10.97;;;6.40;;
43529;SDS011;55654;50.966;6.878;2023-07-22T00:21:06;9.47;;;5.53;;
43529;SDS011;55654;50.966;6.878;2023-07-22T00:23:34;9.57;;;6.07;;
43529;SDS011;55654;50.966;6.878;2023-07-22T00:26:00;9.97;;;6.27;;
43529;SDS011;55654;50.966;6.878;2023-07-22T00:28:25;11.40;;;6.13;;
43529;SDS011;55654;50.966;6.878;2023-07-22T00:30:51;6.90;;;5.17;;
43529;SDS011;55654;50.966;6.878;2023-07-22T00:33:18;8.47;;;5.93;;
43529;SDS011;55654;50.966;6.878;2023-07-22T00:35:47;10.50;;;6.20;;
43529;SDS011;55654;50.966;6.878;2023-07-22T00:38:16;11.85;;;6.35;;
43529;SDS011;55654;50.966;6.878;2023-07-22T00:40:42;9.60;;;5.77;;
43529;SDS011;55654;50.966;6.878;2023-07-22T00:43:09;8.23;;;5.67;;
43529;SDS011;55654;50.966;6.878;2023-07-22T00:45:37;10.27;;;5.47;;
43529;SDS011;55654;50.966;6.878;2023-07-22T00:48:03;9.60;;;5.43;;
43529;SDS011;55654;50.966;6.878;2023-07-22T00:50:30;11.90;;;6.30;;
43529;SDS011;55654;50.966;6.878;2023-07-22T00:52:56;13.17;;;5.90;;
43529;SDS011;55654;50.966;6.878;2023-07-22T00:55:22;10.07;;;5.53;;
43529;SDS011;55654;50.966;6.878;2023-07-22T00:57:49;11.70;;;5.63;;
43529;SDS011;55654;50.966;6.878;2023-07-22T01:00:15;7.73;;;5.40;;
43529;SDS011;55654;50.966;6.878;2023-07-22T01:02:41;9.00;;;5.47;;
43529;SDS011;55654;50.966;6.878;2023-07-22T01:05:08;11.23;;;5.50;;
43529;SDS011;55654;50.966;6.878;2023-07-22T01:07:35;8.20;;;5.30;;
43529;SDS011;55654;50.966;6.878;2023-07-22T01:10:01;8.03;;;5.17;;
43529;SDS011;55654;50.966;6.878;2023-07-22T01:12:28;9.40;;;5.70;;
43529;SDS011;55654;50.966;6.878;2023-07-22T01:14:54;23.00;;;6.33;;
43529;SDS011;55654;50.966;6.878;2023-07-22T01:17:20;8.20;;;5.77;;
43529;SDS011;55654;50.966;6.878;2023-07-22T01:19:46;10.73;;;5.83;;
43529;SDS011;55654;50.966;6.878;2023-07-22T01:22:12;8.17;;;5.13;;
43529;SDS011;55654;50.966;6.878;2023-07-22T01:24:41;9.40;;;5.40;;
43529;SDS011;55654;50.966;6.878;2023-07-22T01:27:08;10.73;;;5.63;;
43529;SDS011;55654;50.966;6.878;2023-07-22T01:29:35;12.63;;;6.20;;
43529;SDS011;55654;50.966;6.878;2023-07-22T01:32:01;7.30;;;4.83;;
43529;SDS011;55654;50.966;6.878;2023-07-22T01:34:27;9.87;;;5.37;;
43529;SDS011;55654;50.966;6.878;2023-07-22T01:36:54;8.40;;;5.43;;
43529;SDS011;55654;50.966;6.878;2023-07-22T01:39:23;9.00;;;6.07;;
43529;SDS011;55654;50.966;6.878;2023-07-22T01:41:49;11.20;;;5.63;;
43529;SDS011;55654;50.966;6.878;2023-07-22T01:44:17;10.00;;;5.50;;
43529;SDS011;55654;50.966;6.878;2023-07-22T01:46:45;10.27;;;5.87;;
43529;SDS011;55654;50.966;6.878;2023-07-22T01:49:12;9.30;;;5.70;;
43529;SDS011;55654;50.966;6.878;2023-07-22T01:51:38;8.90;;;5.63;;
43529;SDS011;55654;50.966;6.878;2023-07-22T01:54:05;11.10;;;5.20;;
43529;SDS011;55654;50.966;6.878;2023-07-22T01:56:31;9.87;;;5.97;;
43529;SDS011;55654;50.966;6.878;2023-07-22T01:58:57;8.37;;;5.47;;
43529;SDS011;55654;50.966;6.878;2023-07-22T02:01:23;11.67;;;5.83;;
43529;SDS011;55654;50.966;6.878;2023-07-22T02:03:49;9.90;;;6.07;;
43529;SDS011;55654;50.966;6.878;2023-07-22T02:06:15;9.20;;;5.90;;
43529;SDS011;55654;50.966;6.878;2023-07-22T02:08:41;12.93;;;5.47;;
43529;SDS011;55654;50.966;6.878;2023-07-22T02:11:07;10.37;;;6.43;;
43529;SDS011;55654;50.966;6.878;2023-07-22T02:13:36;10.60;;;7.13;;
43529;SDS011;55654;50.966;6.878;2023-07-22T02:16:02;10.77;;;6.27;;
43529;SDS011;55654;50.966;6.878;2023-07-22T02:18:28;13.73;;;6.37;;
43529;SDS011;55654;50.966;6.878;2023-07-22T02:20:57;9.93;;;5.87;;
43529;SDS011;55654;50.966;6.878;2023-07-22T02:23:23;11.27;;;6.10;;
43529;SDS011;55654;50.966;6.878;2023-07-22T02:25:52;8.70;;;6.43;;
43529;SDS011;55654;50.966;6.878;2023-07-22T02:28:19;8.60;;;6.13;;
43529;SDS011;55654;50.966;6.878;2023-07-22T02:30:46;8.33;;;5.83;;
43529;SDS011;55654;50.966;6.878;2023-07-22T02:33:13;8.83;;;5.37;;
43529;SDS011;55654;50.966;6.878;2023-07-22T02:35:40;8.90;;;5.80;;
43529;SDS011;55654;50.966;6.878;2023-07-22T02:38:06;9.70;;;6.23;;
43529;SDS011;55654;50.966;6.878;2023-07-22T02:40:38;9.80;;;6.37;;
43529;SDS011;55654;50.966;6.878;2023-07-22T02:43:04;9.45;;;5.90;;
43529;SDS011;55654;50.966;6.878;2023-07-22T02:45:32;10.83;;;6.30;;
43529;SDS011;55654;50.966;6.878;2023-07-22T02:48:00;10.53;;;6.33;;
43529;SDS011;55654;50.966;6.878;2023-07-22T02:50:26;9.87;;;6.13;;
43529;SDS011;55654;50.966;6.878;2023-07-22T02:52:52;12.23;;;5.73;;
43529;SDS011;55654;50.966;6.878;2023-07-22T02:55:18;11.60;;;6.37;;
43529;SDS011;55654;50.966;6.878;2023-07-22T02:57:45;8.80;;;5.50;;
43529;SDS011;55654;50.966;6.878;2023-07-22T03:00:11;11.07;;;6.37;;
43529;SDS011;55654;50.966;6.878;2023-07-22T03:02:38;10.07;;;6.67;;
43529;SDS011;55654;50.966;6.878;2023-07-22T03:05:04;8.77;;;5.43;;
43529;SDS011;55654;50.966;6.878;2023-07-22T03:07:33;13.60;;;6.40;;
43529;SDS011;55654;50.966;6.878;2023-07-22T03:09:59;10.70;;;6.50;;
43529;SDS011;55654;50.966;6.878;2023-07-22T03:12:25;9.27;;;6.10;;
43529;SDS011;55654;50.966;6.878;2023-07-22T03:14:52;9.23;;;6.03;;
43529;SDS011;55654;50.966;6.878;2023-07-22T03:17:21;10.23;;;6.67;;
43529;SDS011;55654;50.966;6.878;2023-07-22T03:19:47;10.93;;;6.43;;
43529;SDS011;55654;50.966;6.878;2023-07-22T03:22:16;12.70;;;6.80;;
43529;SDS011;55654;50.966;6.878;2023-07-22T03:24:45;8.77;;;6.05;;
43529;SDS011;55654;50.966;6.878;2023-07-22T03:27:14;11.23;;;6.90;;
43529;SDS011;55654;50.966;6.878;2023-07-22T03:29:42;10.27;;;6.63;;
43529;SDS011;55654;50.966;6.878;2023-07-22T03:32:12;13.60;;;6.47;;
43529;SDS011;55654;50.966;6.878;2023-07-22T03:34:38;10.70;;;6.53;;
43529;SDS011;55654;50.966;6.878;2023-07-22T03:37:04;11.97;;;6.90;;
43529;SDS011;55654;50.966;6.878;2023-07-22T03:39:30;11.43;;;6.60;;
43529;SDS011;55654;50.966;6.878;2023-07-22T03:41:56;14.30;;;7.17;;
43529;SDS011;55654;50.966;6.878;2023-07-22T03:44:24;17.93;;;7.30;;
43529;SDS011;55654;50.966;6.878;2023-07-22T03:46:51;12.30;;;6.80;;
43529;SDS011;55654;50.966;6.878;2023-07-22T03:49:17;11.23;;;6.80;;
43529;SDS011;55654;50.966;6.878;2023-07-22T03:51:43;12.03;;;6.73;;
43529;SDS011;55654;50.966;6.878;2023-07-22T03:54:09;9.43;;;6.47;;
43529;SDS011;55654;50.966;6.878;2023-07-22T03:56:39;8.67;;;6.57;;
43529;SDS011;55654;50.966;6.878;2023-07-22T03:59:05;9.30;;;6.47;;
43529;SDS011;55654;50.966;6.878;2023-07-22T04:01:31;10.47;;;6.90;;
43529;SDS011;55654;50.966;6.878;2023-07-22T04:03:57;10.10;;;6.53;;
43529;SDS011;55654;50.966;6.878;2023-07-22T04:06:23;11.43;;;6.47;;
43529;SDS011;55654;50.966;6.878;2023-07-22T04:08:49;9.67;;;6.03;;
43529;SDS011;55654;50.966;6.878;2023-07-22T04:11:15;10.60;;;6.93;;
43529;SDS011;55654;50.966;6.878;2023-07-22T04:13:41;9.77;;;7.10;;
43529;SDS011;55654;50.966;6.878;2023-07-22T04:16:07;9.77;;;6.57;;
43529;SDS011;55654;50.966;6.878;2023-07-22T04:18:33;10.47;;;7.00;;
43529;SDS011;55654;50.966;6.878;2023-07-22T04:21:02;10.93;;;7.07;;
43529;SDS011;55654;50.966;6.878;2023-07-22T04:23:28;8.77;;;6.30;;
43529;SDS011;55654;50.966;6.878;2023-07-22T04:25:54;12.03;;;7.20;;
43529;SDS011;55654;50.966;6.878;2023-07-22T04:28:24;10.10;;;6.23;;
43529;SDS011;55654;50.966;6.878;2023-07-22T04:30:57;10.37;;;6.77;;
43529;SDS011;55654;50.966;6.878;2023-07-22T04:33:26;11.33;;;7.23;;
43529;SDS011;55654;50.966;6.878;2023-07-22T04:35:53;11.97;;;7.20;;
43529;SDS011;55654;50.966;6.878;2023-07-22T04:38:19;13.50;;;7.50;;
43529;SDS011;55654;50.966;6.878;2023-07-22T04:40:45;9.83;;;6.73;;
43529;SDS011;55654;50.966;6.878;2023-07-22T04:43:11;10.70;;;7.27;;
43529;SDS011;55654;50.966;6.878;2023-07-22T04:45:37;9.97;;;7.13;;
43529;SDS011;55654;50.966;6.878;2023-07-22T04:48:05;10.80;;;7.17;;
43529;SDS011;55654;50.966;6.878;2023-07-22T04:50:31;11.43;;;7.07;;
43529;SDS011;55654;50.966;6.878;2023-07-22T04:53:00;12.23;;;7.83;;
43529;SDS011;55654;50.966;6.878;2023-07-22T04:55:29;12.90;;;7.57;;
43529;SDS011;55654;50.966;6.878;2023-07-22T04:57:57;10.80;;;7.77;;
43529;SDS011;55654;50.966;6.878;2023-07-22T05:00:26;11.77;;;7.07;;
43529;SDS011;55654;50.966;6.878;2023-07-22T05:02:53;13.73;;;8.33;;
43529;SDS011;55654;50.966;6.878;2023-07-22T05:05:23;13.30;;;8.10;;
43529;SDS011;55654;50.966;6.878;2023-07-22T05:07:49;12.53;;;7.97;;
43529;SDS011;55654;50.966;6.878;2023-07-22T05:10:15;12.23;;;7.63;;
43529;SDS011;55654;50.966;6.878;2023-07-22T05:12:44;12.30;;;7.70;;
43529;SDS011;55654;50.966;6.878;2023-07-22T05:15:10;16.03;;;8.37;;
43529;SDS011;55654;50.966;6.878;2023-07-22T05:17:37;14.68;;;8.38;;
43529;SDS011;55654;50.966;6.878;2023-07-22T05:20:03;13.83;;;7.37;;
43529;SDS011;55654;50.966;6.878;2023-07-22T05:22:34;12.88;;;7.45;;
43529;SDS011;55654;50.966;6.878;2023-07-22T05:25:00;11.65;;;7.30;;
43529;SDS011;55654;50.966;6.878;2023-07-22T05:27:28;12.15;;;7.25;;
43529;SDS011;55654;50.966;6.878;2023-07-22T05:29:54;12.38;;;7.15;;
43529;SDS011;55654;50.966;6.878;2023-07-22T05:32:20;11.55;;;7.25;;
43529;SDS011;55654;50.966;6.878;2023-07-22T05:34:46;10.13;;;6.78;;
43529;SDS011;55654;50.966;6.878;2023-07-22T05:37:13;10.07;;;6.63;;
43529;SDS011;55654;50.966;6.878;2023-07-22T05:39:39;14.35;;;7.00;;
43529;SDS011;55654;50.966;6.878;2023-07-22T05:42:05;12.88;;;7.82;;
43529;SDS011;55654;50.966;6.878;2023-07-22T05:44:33;11.90;;;7.43;;
43529;SDS011;55654;50.966;6.878;2023-07-22T05:46:59;8.32;;;6.00;;
43529;SDS011;55654;50.966;6.878;2023-07-22T05:49:30;11.68;;;7.47;;
43529;SDS011;55654;50.966;6.878;2023-07-22T05:51:56;10.38;;;6.50;;
43529;SDS011;55654;50.966;6.878;2023-07-22T05:54:22;10.52;;;7.05;;
43529;SDS011;55654;50.966;6.878;2023-07-22T05:56:52;13.27;;;7.00;;
43529;SDS011;55654;50.966;6.878;2023-07-22T05:59:20;9.27;;;6.40;;
43529;SDS011;55654;50.966;6.878;2023-07-22T06:01:48;9.98;;;6.20;;
43529;SDS011;55654;50.966;6.878;2023-07-22T06:04:17;9.73;;;6.43;;
43529;SDS011;55654;50.966;6.878;2023-07-22T06:06:43;9.80;;;7.38;;
43529;SDS011;55654;50.966;6.878;2023-07-22T06:09:09;12.75;;;6.97;;
43529;SDS011;55654;50.966;6.878;2023-07-22T06:11:35;13.20;;;6.53;;
43529;SDS011;55654;50.966;6.878;2023-07-22T06:14:01;11.25;;;6.22;;
43529;SDS011;55654;50.966;6.878;2023-07-22T06:16:27;9.68;;;6.32;;
43529;SDS011;55654;50.966;6.878;2023-07-22T06:18:53;11.80;;;6.45;;
43529;SDS011;55654;50.966;6.878;2023-07-22T06:21:19;9.65;;;5.72;;
43529;SDS011;55654;50.966;6.878;2023-07-22T06:23:47;9.10;;;6.03;;
43529;SDS011;55654;50.966;6.878;2023-07-22T06:26:13;11.02;;;6.70;;
43529;SDS011;55654;50.966;6.878;2023-07-22T06:28:39;9.73;;;6.43;;
43529;SDS011;55654;50.966;6.878;2023-07-22T06:31:07;9.02;;;5.90;;
43529;SDS011;55654;50.966;6.878;2023-07-22T06:33:33;9.15;;;6.28;;
43529;SDS011;55654;50.966;6.878;2023-07-22T06:36:01;10.07;;;6.78;;
43529;SDS011;55654;50.966;6.878;2023-07-22T06:38:29;9.75;;;6.38;;
43529;SDS011;55654;50.966;6.878;2023-07-22T06:40:57;11.45;;;6.80;;
43529;SDS011;55654;50.966;6.878;2023-07-22T06:43:23;12.43;;;6.40;;
43529;SDS011;55654;50.966;6.878;2023-07-22T06:45:49;10.73;;;6.40;;
43529;SDS011;55654;50.966;6.878;2023-07-22T06:48:15;12.13;;;6.60;;
43529;SDS011;55654;50.966;6.878;2023-07-22T06:50:48;12.10;;;8.13;;
43529;SDS011;55654;50.966;6.878;2023-07-22T06:53:14;12.15;;;7.80;;
43529;SDS011;55654;50.966;6.878;2023-07-22T06:55:40;8.65;;;5.85;;
43529;SDS011;55654;50.966;6.878;2023-07-22T06:58:06;10.75;;;6.45;;
43529;SDS011;55654;50.966;6.878;2023-07-22T07:00:32;11.23;;;6.53;;
43529;SDS011;55654;50.966;6.878;2023-07-22T07:03:00;9.85;;;6.13;;
43529;SDS011;55654;50.966;6.878;2023-07-22T07:05:28;8.55;;;6.32;;
43529;SDS011;55654;50.966;6.878;2023-07-22T07:07:56;10.05;;;6.97;;
43529;SDS011;55654;50.966;6.878;2023-07-22T07:10:22;10.18;;;6.78;;
43529;SDS011;55654;50.966;6.878;2023-07-22T07:12:48;14.38;;;7.55;;
43529;SDS011;55654;50.966;6.878;2023-07-22T07:15:15;10.75;;;6.97;;
43529;SDS011;55654;50.966;6.878;2023-07-22T07:17:41;14.77;;;7.13;;
43529;SDS011;55654;50.966;6.878;2023-07-22T07:20:09;11.35;;;6.85;;
43529;SDS011;55654;50.966;6.878;2023-07-22T07:22:35;11.73;;;7.40;;
43529;SDS011;55654;50.966;6.878;2023-07-22T07:25:01;12.18;;;6.15;;
43529;SDS011;55654;50.966;6.878;2023-07-22T07:27:27;10.18;;;6.20;;
43529;SDS011;55654;50.966;6.878;2023-07-22T07:29:53;8.82;;;5.90;;
43529;SDS011;55654;50.966;6.878;2023-07-22T07:32:22;11.45;;;6.85;;
43529;SDS011;55654;50.966;6.878;2023-07-22T07:34:49;9.65;;;6.35;;
43529;SDS011;55654;50.966;6.878;2023-07-22T07:37:17;9.57;;;6.68;;
43529;SDS011;55654;50.966;6.878;2023-07-22T07:39:43;11.63;;;7.30;;
43529;SDS011;55654;50.966;6.878;2023-07-22T07:42:09;12.15;;;6.65;;
43529;SDS011;55654;50.966;6.878;2023-07-22T07:44:35;8.13;;;5.72;;
43529;SDS011;55654;50.966;6.878;2023-07-22T07:47:04;11.00;;;7.10;;
43529;SDS011;55654;50.966;6.878;2023-07-22T07:49:30;10.27;;;5.97;;
43529;SDS011;55654;50.966;6.878;2023-07-22T07:51:56;10.75;;;6.13;;
43529;SDS011;55654;50.966;6.878;2023-07-22T07:54:22;8.25;;;5.50;;
43529;SDS011;55654;50.966;6.878;2023-07-22T07:56:48;11.27;;;5.63;;
43529;SDS011;55654;50.966;6.878;2023-07-22T07:59:15;10.35;;;6.70;;
43529;SDS011;55654;50.966;6.878;2023-07-22T08:01:41;9.60;;;5.57;;
43529;SDS011;55654;50.966;6.878;2023-07-22T08:04:09;9.55;;;5.57;;
43529;SDS011;55654;50.966;6.878;2023-07-22T08:06:35;14.98;;;5.45;;
43529;SDS011;55654;50.966;6.878;2023-07-22T08:09:03;8.50;;;5.40;;
43529;SDS011;55654;50.966;6.878;2023-07-22T08:11:34;11.63;;;6.28;;
43529;SDS011;55654;50.966;6.878;2023-07-22T08:14:00;8.60;;;5.47;;
43529;SDS011;55654;50.966;6.878;2023-07-22T08:16:26;8.07;;;5.38;;
43529;SDS011;55654;50.966;6.878;2023-07-22T08:18:55;14.13;;;5.22;;
43529;SDS011;55654;50.966;6.878;2023-07-22T08:21:21;8.32;;;5.35;;
43529;SDS011;55654;50.966;6.878;2023-07-22T08:23:47;11.05;;;5.70;;
43529;SDS011;55654;50.966;6.878;2023-07-22T08:26:13;7.78;;;5.68;;
43529;SDS011;55654;50.966;6.878;2023-07-22T08:28:39;9.38;;;4.70;;
43529;SDS011;55654;50.966;6.878;2023-07-22T08:31:05;8.95;;;5.55;;
43529;SDS011;55654;50.966;6.878;2023-07-22T08:33:34;10.88;;;5.70;;
43529;SDS011;55654;50.966;6.878;2023-07-22T08:36:00;7.28;;;4.88;;
43529;SDS011;55654;50.966;6.878;2023-07-22T08:38:30;6.88;;;4.53;;
43529;SDS011;55654;50.966;6.878;2023-07-22T08:40:56;8.23;;;4.82;;
43529;SDS011;55654;50.966;6.878;2023-07-22T08:43:22;15.07;;;4.78;;
43529;SDS011;55654;50.966;6.878;2023-07-22T08:45:49;7.95;;;4.90;;
43529;SDS011;55654;50.966;6.878;2023-07-22T08:48:16;6.07;;;4.22;;
43529;SDS011;55654;50.966;6.878;2023-07-22T08:53:10;6.70;;;3.97;;
43529;SDS011;55654;50.966;6.878;2023-07-22T08:55:36;5.85;;;3.72;;
43529;SDS011;55654;50.966;6.878;2023-07-22T08:58:05;6.13;;;4.07;;
43529;SDS011;55654;50.966;6.878;2023-07-22T09:00:31;5.47;;;3.90;;
43529;SDS011;55654;50.966;6.878;2023-07-22T09:02:57;9.98;;;4.38;;
43529;SDS011;55654;50.966;6.878;2023-07-22T09:05:24;9.40;;;4.70;;
43529;SDS011;55654;50.966;6.878;2023-07-22T09:07:50;6.32;;;4.50;;
43529;SDS011;55654;50.966;6.878;2023-07-22T09:10:17;6.65;;;3.80;;
43529;SDS011;55654;50.966;6.878;2023-07-22T09:12:44;7.22;;;4.45;;
43529;SDS011;55654;50.966;6.878;2023-07-22T09:15:14;5.88;;;4.00;;
43529;SDS011;55654;50.966;6.878;2023-07-22T09:17:41;8.57;;;4.43;;
43529;SDS011;55654;50.966;6.878;2023-07-22T09:20:07;6.38;;;4.20;;
43529;SDS011;55654;50.966;6.878;2023-07-22T09:22:33;5.90;;;4.28;;
43529;SDS011;55654;50.966;6.878;2023-07-22T09:25:33;8.15;;;4.28;;
43529;SDS011;55654;50.966;6.878;2023-07-22T09:27:53;11.68;;;3.53;;
43529;SDS011;55654;50.966;6.878;2023-07-22T09:32:45;11.80;;;4.45;;
43529;SDS011;55654;50.966;6.878;2023-07-22T09:35:11;12.85;;;5.47;;
43529;SDS011;55654;50.966;6.878;2023-07-22T09:37:38;9.40;;;5.00;;
43529;SDS011;55654;50.966;6.878;2023-07-22T09:42:46;10.10;;;3.22;;
43529;SDS011;55654;50.966;6.878;2023-07-22T09:45:15;4.45;;;2.75;;
43529;SDS011;55654;50.966;6.878;2023-07-22T09:47:44;6.22;;;3.15;;
43529;SDS011;55654;50.966;6.878;2023-07-22T09:50:11;7.75;;;3.90;;
43529;SDS011;55654;50.966;6.878;2023-07-22T09:55:29;7.25;;;2.50;;
43529;SDS011;55654;50.966;6.878;2023-07-22T09:57:58;15.35;;;4.05;;
43529;SDS011;55654;50.966;6.878;2023-07-22T10:00:28;4.97;;;3.22;;
43529;SDS011;55654;50.966;6.878;2023-07-22T10:02:56;4.75;;;3.03;;
43529;SDS011;55654;50.966;6.878;2023-07-22T10:05:25;3.28;;;2.17;;
43529;SDS011;55654;50.966;6.878;2023-07-22T10:07:52;4.63;;;2.42;;
43529;SDS011;55654;50.966;6.878;2023-07-22T10:10:22;2.40;;;1.75;;
43529;SDS011;55654;50.966;6.878;2023-07-22T10:12:49;4.80;;;2.17;;
43529;SDS011;55654;50.966;6.878;2023-07-22T10:15:15;5.22;;;2.40;;
43529;SDS011;55654;50.966;6.878;2023-07-22T10:17:45;8.57;;;2.60;;
43529;SDS011;55654;50.966;6.878;2023-07-22T10:20:12;9.02;;;2.38;;
43529;SDS011;55654;50.966;6.878;2023-07-22T10:22:44;3.47;;;2.28;;
43529;SDS011;55654;50.966;6.878;2023-07-22T10:25:13;4.90;;;2.38;;
43529;SDS011;55654;50.966;6.878;2023-07-22T10:27:40;3.38;;;1.98;;
43529;SDS011;55654;50.966;6.878;2023-07-22T10:30:13;4.70;;;1.88;;
43529;SDS011;55654;50.966;6.878;2023-07-22T10:35:11;6.82;;;2.10;;
43529;SDS011;55654;50.966;6.878;2023-07-22T10:37:40;6.65;;;1.85;;
43529;SDS011;55654;50.966;6.878;2023-07-22T10:40:26;6.65;;;1.80;;
43529;SDS011;55654;50.966;6.878;2023-07-22T10:42:59;6.90;;;2.13;;
43529;SDS011;55654;50.966;6.878;2023-07-22T10:45:39;3.08;;;1.88;;
43529;SDS011;55654;50.966;6.878;2023-07-22T10:48:08;2.67;;;1.90;;
43529;SDS011;55654;50.966;6.878;2023-07-22T10:50:41;8.82;;;2.15;;
43529;SDS011;55654;50.966;6.878;2023-07-22T10:53:20;3.75;;;2.00;;
43529;SDS011;55654;50.966;6.878;2023-07-22T10:58:33;3.72;;;1.58;;
43529;SDS011;55654;50.966;6.878;2023-07-22T11:01:21;2.17;;;1.60;;
43529;SDS011;55654;50.966;6.878;2023-07-22T11:06:33;2.53;;;1.60;;
43529;SDS011;55654;50.966;6.878;2023-07-22T11:08:59;6.05;;;2.00;;
43529;SDS011;55654;50.966;6.878;2023-07-22T11:11:40;3.35;;;1.85;;
43529;SDS011;55654;50.966;6.878;2023-07-22T11:14:22;2.47;;;1.90;;
43529;SDS011;55654;50.966;6.878;2023-07-22T11:16:49;2.72;;;1.50;;
43529;SDS011;55654;50.966;6.878;2023-07-22T11:19:18;3.70;;;2.15;;
43529;SDS011;55654;50.966;6.878;2023-07-22T11:21:46;3.00;;;1.83;;
43529;SDS011;55654;50.966;6.878;2023-07-22T11:24:12;5.43;;;1.80;;
43529;SDS011;55654;50.966;6.878;2023-07-22T11:26:39;3.72;;;2.08;;
43529;SDS011;55654;50.966;6.878;2023-07-22T11:29:06;4.75;;;2.13;;
43529;SDS011;55654;50.966;6.878;2023-07-22T11:31:35;15.63;;;2.55;;
43529;SDS011;55654;50.966;6.878;2023-07-22T11:34:11;5.18;;;2.00;;
43529;SDS011;55654;50.966;6.878;2023-07-22T11:36:37;4.80;;;2.05;;
43529;SDS011;55654;50.966;6.878;2023-07-22T11:39:06;3.40;;;2.28;;
43529;SDS011;55654;50.966;6.878;2023-07-22T11:41:33;3.30;;;2.00;;
43529;SDS011;55654;50.966;6.878;2023-07-22T11:43:59;5.10;;;2.00;;
43529;SDS011;55654;50.966;6.878;2023-07-22T11:46:26;3.22;;;2.25;;
43529;SDS011;55654;50.966;6.878;2023-07-22T11:48:52;4.07;;;2.05;;
43529;SDS011;55654;50.966;6.878;2023-07-22T11:51:21;4.20;;;2.38;;
43529;SDS011;55654;50.966;6.878;2023-07-22T11:53:47;6.75;;;2.30;;
43529;SDS011;55654;50.966;6.878;2023-07-22T11:56:32;2.88;;;2.03;;
43529;SDS011;55654;50.966;6.878;2023-07-22T11:59:01;2.30;;;1.83;;
43529;SDS011;55654;50.966;6.878;2023-07-22T12:01:31;5.28;;;2.30;;
43529;SDS011;55654;50.966;6.878;2023-07-22T12:03:58;2.90;;;2.08;;
43529;SDS011;55654;50.966;6.878;2023-07-22T12:06:27;3.35;;;1.90;;
43529;SDS011;55654;50.966;6.878;2023-07-22T12:08:53;2.05;;;1.80;;
43529;SDS011;55654;50.966;6.878;2023-07-22T12:11:23;3.08;;;1.95;;
43529;SDS011;55654;50.966;6.878;2023-07-22T12:14:04;2.83;;;2.03;;
43529;SDS011;55654;50.966;6.878;2023-07-22T12:16:33;2.90;;;2.08;;
43529;SDS011;55654;50.966;6.878;2023-07-22T12:19:00;4.80;;;2.67;;
43529;SDS011;55654;50.966;6.878;2023-07-22T12:21:27;2.72;;;2.38;;
43529;SDS011;55654;50.966;6.878;2023-07-22T12:23:53;3.03;;;2.20;;
43529;SDS011;55654;50.966;6.878;2023-07-22T12:26:19;2.90;;;1.75;;
43529;SDS011;55654;50.966;6.878;2023-07-22T12:28:45;3.88;;;1.90;;
43529;SDS011;55654;50.966;6.878;2023-07-22T12:31:11;3.15;;;1.63;;
43529;SDS011;55654;50.966;6.878;2023-07-22T12:33:37;2.50;;;1.77;;
43529;SDS011;55654;50.966;6.878;2023-07-22T12:36:03;3.15;;;2.20;;
43529;SDS011;55654;50.966;6.878;2023-07-22T12:38:30;4.45;;;1.75;;
43529;SDS011;55654;50.966;6.878;2023-07-22T12:40:56;6.57;;;2.42;;
43529;SDS011;55654;50.966;6.878;2023-07-22T12:43:22;4.97;;;2.60;;
43529;SDS011;55654;50.966;6.878;2023-07-22T12:45:48;2.72;;;1.70;;
43529;SDS011;55654;50.966;6.878;2023-07-22T12:48:18;4.50;;;1.85;;
43529;SDS011;55654;50.966;6.878;2023-07-22T12:50:44;2.22;;;1.67;;
43529;SDS011;55654;50.966;6.878;2023-07-22T12:53:12;4.25;;;1.88;;
43529;SDS011;55654;50.966;6.878;2023-07-22T12:55:38;5.82;;;1.92;;
43529;SDS011;55654;50.966;6.878;2023-07-22T12:58:04;2.40;;;1.70;;
43529;SDS011;55654;50.966;6.878;2023-07-22T13:00:33;2.72;;;1.85;;
43529;SDS011;55654;50.966;6.878;2023-07-22T13:02:59;1.63;;;1.27;;
43529;SDS011;55654;50.966;6.878;2023-07-22T13:05:25;2.63;;;1.65;;
43529;SDS011;55654;50.966;6.878;2023-07-22T13:07:51;1.98;;;1.27;;
43529;SDS011;55654;50.966;6.878;2023-07-22T13:10:18;3.17;;;1.48;;
43529;SDS011;55654;50.966;6.878;2023-07-22T13:12:45;2.92;;;1.90;;
43529;SDS011;55654;50.966;6.878;2023-07-22T13:15:11;2.30;;;1.40;;
43529;SDS011;55654;50.966;6.878;2023-07-22T13:17:37;2.55;;;1.40;;
43529;SDS011;55654;50.966;6.878;2023-07-22T13:20:04;2.83;;;1.45;;
43529;SDS011;55654;50.966;6.878;2023-07-22T13:22:34;5.40;;;2.17;;
43529;SDS011;55654;50.966;6.878;2023-07-22T13:25:03;9.50;;;2.20;;
43529;SDS011;55654;50.966;6.878;2023-07-22T13:27:29;2.50;;;1.70;;
43529;SDS011;55654;50.966;6.878;2023-07-22T13:29:55;2.30;;;1.70;;
43529;SDS011;55654;50.966;6.878;2023-07-22T13:32:22;3.13;;;1.70;;
43529;SDS011;55654;50.966;6.878;2023-07-22T13:34:48;2.85;;;1.80;;
43529;SDS011;55654;50.966;6.878;2023-07-22T13:37:14;2.63;;;1.85;;
43529;SDS011;55654;50.966;6.878;2023-07-22T13:39:41;2.90;;;1.40;;
43529;SDS011;55654;50.966;6.878;2023-07-22T13:42:07;2.22;;;1.55;;
43529;SDS011;55654;50.966;6.878;2023-07-22T13:44:35;2.50;;;1.92;;
43529;SDS011;55654;50.966;6.878;2023-07-22T13:47:01;3.35;;;1.80;;
43529;SDS011;55654;50.966;6.878;2023-07-22T13:49:31;2.65;;;1.70;;
43529;SDS011;55654;50.966;6.878;2023-07-22T13:51:58;3.70;;;1.90;;
43529;SDS011;55654;50.966;6.878;2023-07-22T13:54:24;3.58;;;2.35;;
43529;SDS011;55654;50.966;6.878;2023-07-22T13:56:49;2.78;;;1.65;;
43529;SDS011;55654;50.966;6.878;2023-07-22T13:59:15;7.00;;;2.05;;
43529;SDS011;55654;50.966;6.878;2023-07-22T14:01:44;2.40;;;1.90;;
43529;SDS011;55654;50.966;6.878;2023-07-22T14:04:12;3.00;;;1.65;;
43529;SDS011;55654;50.966;6.878;2023-07-22T14:06:38;5.72;;;1.67;;
43529;SDS011;55654;50.966;6.878;2023-07-22T14:09:07;2.70;;;1.77;;
43529;SDS011;55654;50.966;6.878;2023-07-22T14:11:33;3.50;;;2.03;;
43529;SDS011;55654;50.966;6.878;2023-07-22T14:13:59;3.95;;;2.50;;
43529;SDS011;55654;50.966;6.878;2023-07-22T14:16:27;3.38;;;2.03;;
43529;SDS011;55654;50.966;6.878;2023-07-22T14:18:53;6.03;;;2.08;;
43529;SDS011;55654;50.966;6.878;2023-07-22T14:21:21;4.20;;;2.58;;
43529;SDS011;55654;50.966;6.878;2023-07-22T14:23:47;4.82;;;2.50;;
43529;SDS011;55654;50.966;6.878;2023-07-22T14:26:13;3.33;;;2.20;;
43529;SDS011;55654;50.966;6.878;2023-07-22T14:28:42;5.22;;;2.40;;
43529;SDS011;55654;50.966;6.878;2023-07-22T14:31:10;3.70;;;2.60;;
43529;SDS011;55654;50.966;6.878;2023-07-22T14:33:38;4.50;;;2.80;;
43529;SDS011;55654;50.966;6.878;2023-07-22T14:36:04;3.25;;;2.50;;
43529;SDS011;55654;50.966;6.878;2023-07-22T14:38:33;3.13;;;2.25;;
43529;SDS011;55654;50.966;6.878;2023-07-22T14:41:01;10.02;;;2.28;;
43529;SDS011;55654;50.966;6.878;2023-07-22T14:43:28;5.60;;;2.60;;
43529;SDS011;55654;50.966;6.878;2023-07-22T14:45:54;4.70;;;2.65;;
43529;SDS011;55654;50.966;6.878;2023-07-22T14:48:20;4.45;;;2.30;;
43529;SDS011;55654;50.966;6.878;2023-07-22T14:50:45;7.65;;;3.10;;
43529;SDS011;55654;50.966;6.878;2023-07-22T14:53:11;4.03;;;2.33;;
43529;SDS011;55654;50.966;6.878;2023-07-22T14:55:40;3.65;;;2.40;;
43529;SDS011;55654;50.966;6.878;2023-07-22T14:58:06;2.70;;;2.08;;
43529;SDS011;55654;50.966;6.878;2023-07-22T15:00:32;5.75;;;2.58;;
43529;SDS011;55654;50.966;6.878;2023-07-22T15:02:58;3.13;;;1.98;;